USAF Academy, Colorado
Current Conditions -  °F | °C
As of 6:58 AM on Wednesday 26 Nov 2014 (Local Time) from KAFF Reporting Station
Overcast Overcast  
Wind Chill: 25°   Ceiling: 800
Heat Index: 25°   Visibility: 10mi
Dew Point: 22°   Wind: 2mph
Humidity: 86%   Direction: 140°SE
Pressure: 30.17"   Gusts: NA
Location:  39.01°N, 104.87°W
Report Text: KAFF 261358Z AUTO 14002KT 10SM OVC008 M04/M06 A3017 RMK AO2 SLP232 T10381058
Loading
Personal Weather Stations






























Interactive Weather Map New forecast layout! Learn more

10-Day Weather Forecast

Advertisements
Track Severe Weather on mobile